KCOD/COD METAR and TAF weather

Enter ICAO airport designator
Station Type Date Time Source
KCOD METAR 2019/10/20 18:56 UTC NOAA

KCOD 201856Z AUTO 01014G20KT 10SM OVC060 05/M01 A2990 RMK AO2 SLP145 T00501011


Station Type Date Time Source
KCOD Decoded METAR 2019/10/20 18:56 UTC NOAA

Cody, WY, United States (KCOD) 44-31N 109-01W 1553M
Oct 20, 2019 - 02:56 PM EDT / 2019.10.20 1856 UTC
Wind: from the N (010 degrees) at 16 MPH (14 KT) gusting to 23 MPH (20 KT):0
Visibility: 10 mile(s):0
Sky conditions: overcast
Temperature: 41.0 F (5.0 C)
Dew Point: 30.0 F (-1.1 C)
Relative Humidity: 64%
Pressure (altimeter): 29.9 in. Hg (1012 hPa)
ob: KCOD 201856Z AUTO 01014G20KT 10SM OVC060 05/M01 A2990 RMK AO2 SLP145 T00501011
cycle: 19

Station Type Date Time Source
KCOD TAF 2019/10/20 18:40 UTC NOAA

TAF KCOD 201738Z 2018/2118 35014G20KT P6SM FEW025 BKN050
FM210200 28008KT P6SM SCT050 BKN090
AMD LTD TO CLD VIS AND WIND

Example: see airport list